Virtual Washington ARTCC

Weather

KBWI 211954Z 21011G21KT 10SM FEW037 BKN110 25/17 A3024 RMK AO2 SLP239 T02500167
KDCA 211952Z 20013G22KT 10SM FEW060 SCT110 27/17 A3026 RMK AO2 SLP248 T02670167
KIAD 211952Z 19013KT 10SM FEW040 BKN085 BKN120 25/17 A3026 RMK AO2 PK WND 20028/1918 SLP245 T02500167
KORF 211951Z 25009G18KT 10SM OVC037 24/17 A3037 RMK AO2 SLP285 T02440167
KRDU 211951Z 23013KT 10SM SCT034 BKN043 23/17 A3041 RMK AO2 SLP295 T02330167

Events



ZDC Activity

No controllers online.

News



The information contained on all pages of this website is to be used for flight simulation purposes only on the VATSIM network. It is not intended nor should it be used for real world navigation.This site is not affiliated with the FAA, the actual Washington Center or any governing aviation body. All content contained herein is approved only for use on the VATSIM network. ©2016 Virtual Washington ARTCC -- Source Code © 2016-2017 W. Guisbond and R. Rump.